sensor_id;sensor_type;location;lat;lon;timestamp;P1;durP1;ratioP1;P2;durP2;ratioP2
76749;SDS011;66447;35.844;14.468;2023-03-01T00:21:54;26.35;;;5.07;;
76749;SDS011;66447;35.844;14.468;2023-03-01T00:36:55;18.50;;;2.90;;
76749;SDS011;66447;35.844;14.468;2023-03-01T00:52:05;21.85;;;3.78;;
76749;SDS011;66447;35.844;14.468;2023-03-01T01:07:06;18.07;;;3.17;;
76749;SDS011;66447;35.844;14.468;2023-03-01T01:22:07;19.17;;;2.80;;
76749;SDS011;66447;35.844;14.468;2023-03-01T01:37:08;12.17;;;2.60;;
76749;SDS011;66447;35.844;14.468;2023-03-01T01:52:11;13.07;;;2.30;;
76749;SDS011;66447;35.844;14.468;2023-03-01T02:07:22;15.73;;;4.32;;
76749;SDS011;66447;35.844;14.468;2023-03-01T02:22:25;14.02;;;2.85;;
76749;SDS011;66447;35.844;14.468;2023-03-01T02:37:30;9.52;;;2.42;;
76749;SDS011;66447;35.844;14.468;2023-03-01T02:52:40;10.90;;;1.90;;
76749;SDS011;66447;35.844;14.468;2023-03-01T03:07:48;16.00;;;3.30;;
76749;SDS011;66447;35.844;14.468;2023-03-01T03:22:50;14.02;;;2.65;;
76749;SDS011;66447;35.844;14.468;2023-03-01T03:37:53;10.07;;;3.13;;
76749;SDS011;66447;35.844;14.468;2023-03-01T03:53:04;16.02;;;3.65;;
76749;SDS011;66447;35.844;14.468;2023-03-01T04:08:08;10.57;;;3.67;;
76749;SDS011;66447;35.844;14.468;2023-03-01T04:23:11;12.57;;;3.70;;
76749;SDS011;66447;35.844;14.468;2023-03-01T04:38:20;20.10;;;4.30;;
76749;SDS011;66447;35.844;14.468;2023-03-01T04:53:21;10.97;;;3.30;;
76749;SDS011;66447;35.844;14.468;2023-03-01T05:08:22;17.00;;;4.00;;
76749;SDS011;66447;35.844;14.468;2023-03-01T05:23:24;12.30;;;4.43;;
76749;SDS011;66447;35.844;14.468;2023-03-01T05:53:26;16.48;;;3.10;;
76749;SDS011;66447;35.844;14.468;2023-03-01T06:08:28;24.80;;;3.77;;
76749;SDS011;66447;35.844;14.468;2023-03-01T06:23:30;31.35;;;3.67;;
76749;SDS011;66447;35.844;14.468;2023-03-01T06:38:32;43.20;;;4.25;;
76749;SDS011;66447;35.844;14.468;2023-03-01T06:53:34;60.30;;;5.57;;
76749;SDS011;66447;35.844;14.468;2023-03-01T07:08:35;40.57;;;6.17;;
76749;SDS011;66447;35.844;14.468;2023-03-01T07:23:36;28.37;;;4.57;;
76749;SDS011;66447;35.844;14.468;2023-03-01T07:38:38;31.10;;;3.60;;
76749;SDS011;66447;35.844;14.468;2023-03-01T08:08:40;21.23;;;2.37;;
76749;SDS011;66447;35.844;14.468;2023-03-01T08:23:41;20.37;;;2.63;;
76749;SDS011;66447;35.844;14.468;2023-03-01T08:38:43;12.95;;;2.20;;
76749;SDS011;66447;35.844;14.468;2023-03-01T08:53:46;16.13;;;2.42;;
76749;SDS011;66447;35.844;14.468;2023-03-01T09:08:48;14.13;;;2.10;;
76749;SDS011;66447;35.844;14.468;2023-03-01T09:23:50;15.32;;;2.45;;
76749;SDS011;66447;35.844;14.468;2023-03-01T09:38:51;18.33;;;2.03;;
76749;SDS011;66447;35.844;14.468;2023-03-01T09:53:56;10.55;;;1.92;;
76749;SDS011;66447;35.844;14.468;2023-03-01T10:09:10;15.57;;;1.92;;
76749;SDS011;66447;35.844;14.468;2023-03-01T10:24:16;15.07;;;1.70;;
76749;SDS011;66447;35.844;14.468;2023-03-01T10:39:22;19.85;;;2.80;;
76749;SDS011;66447;35.844;14.468;2023-03-01T10:54:28;23.60;;;2.80;;
76749;SDS011;66447;35.844;14.468;2023-03-01T11:09:33;11.13;;;1.70;;
76749;SDS011;66447;35.844;14.468;2023-03-01T11:24:43;11.45;;;1.73;;
76749;SDS011;66447;35.844;14.468;2023-03-01T11:55:07;13.98;;;2.35;;
76749;SDS011;66447;35.844;14.468;2023-03-01T12:56:43;16.98;;;2.25;;
76749;SDS011;66447;35.844;14.468;2023-03-01T13:11:52;12.10;;;2.03;;
76749;SDS011;66447;35.844;14.468;2023-03-01T13:42:28;18.05;;;2.72;;
76749;SDS011;66447;35.844;14.468;2023-03-01T13:57:33;10.02;;;2.28;;
76749;SDS011;66447;35.844;14.468;2023-03-01T14:43:12;14.93;;;2.35;;
76749;SDS011;66447;35.844;14.468;2023-03-01T14:58:21;9.75;;;2.25;;
76749;SDS011;66447;35.844;14.468;2023-03-01T15:13:25;17.40;;;2.28;;
76749;SDS011;66447;35.844;14.468;2023-03-01T15:28:32;15.00;;;2.05;;
76749;SDS011;66447;35.844;14.468;2023-03-01T15:43:39;13.40;;;1.58;;
76749;SDS011;66447;35.844;14.468;2023-03-01T15:58:47;12.27;;;2.20;;
76749;SDS011;66447;35.844;14.468;2023-03-01T16:13:48;8.05;;;1.75;;
76749;SDS011;66447;35.844;14.468;2023-03-01T16:28:58;13.73;;;1.92;;
76749;SDS011;66447;35.844;14.468;2023-03-01T16:44:05;14.80;;;2.20;;
76749;SDS011;66447;35.844;14.468;2023-03-01T16:59:06;14.77;;;1.90;;
76749;SDS011;66447;35.844;14.468;2023-03-01T17:29:09;7.47;;;1.60;;
76749;SDS011;66447;35.844;14.468;2023-03-01T17:59:13;10.73;;;3.55;;
76749;SDS011;66447;35.844;14.468;2023-03-01T18:14:16;8.70;;;2.00;;
76749;SDS011;66447;35.844;14.468;2023-03-01T18:29:18;11.20;;;1.77;;
76749;SDS011;66447;35.844;14.468;2023-03-01T18:59:20;7.55;;;1.73;;
76749;SDS011;66447;35.844;14.468;2023-03-01T19:14:23;6.30;;;1.52;;
76749;SDS011;66447;35.844;14.468;2023-03-01T19:29:24;12.95;;;1.70;;
76749;SDS011;66447;35.844;14.468;2023-03-01T19:44:25;7.27;;;1.70;;
76749;SDS011;66447;35.844;14.468;2023-03-01T19:59:27;14.88;;;3.13;;
76749;SDS011;66447;35.844;14.468;2023-03-01T20:14:29;8.60;;;2.70;;
76749;SDS011;66447;35.844;14.468;2023-03-01T20:29:30;10.93;;;3.10;;
76749;SDS011;66447;35.844;14.468;2023-03-01T20:44:32;16.43;;;2.90;;
76749;SDS011;66447;35.844;14.468;2023-03-01T20:59:34;8.77;;;2.95;;
76749;SDS011;66447;35.844;14.468;2023-03-01T21:14:41;13.85;;;7.47;;
76749;SDS011;66447;35.844;14.468;2023-03-01T21:44:44;13.25;;;2.40;;
76749;SDS011;66447;35.844;14.468;2023-03-01T21:59:45;8.20;;;1.40;;
76749;SDS011;66447;35.844;14.468;2023-03-01T22:14:47;9.80;;;1.80;;
76749;SDS011;66447;35.844;14.468;2023-03-01T22:29:48;12.83;;;4.97;;
76749;SDS011;66447;35.844;14.468;2023-03-01T22:44:49;14.50;;;4.33;;
76749;SDS011;66447;35.844;14.468;2023-03-01T22:59:50;6.30;;;1.47;;
76749;SDS011;66447;35.844;14.468;2023-03-01T23:14:52;6.23;;;1.53;;
76749;SDS011;66447;35.844;14.468;2023-03-01T23:29:53;6.93;;;1.80;;
76749;SDS011;66447;35.844;14.468;2023-03-01T23:44:54;10.10;;;2.00;;
76749;SDS011;66447;35.844;14.468;2023-03-01T23:59:55;14.30;;;2.63;;
